Grantsdale, Montana
Current Conditions -  °F | °C
As of 2:53 AM on Saturday 29 Nov 2014 (Local Time) from KMSO Reporting Station
Light Rain Light Rain  
Wind Chill: 40°   Ceiling: 4100
Heat Index: 43°   Visibility: 10mi
Dew Point: 37°   Wind: 5mph
Humidity: 80%   Direction: 90°E
Pressure: 29.3"   Gusts: NA
Location:  46.2°N, 114.13°W
Report Text: KMSO 290953Z AUTO 09004KT 10SM -RA FEW034 OVC041 06/03 A2930 RMK AO2 SLP923 P0002 T00610028
Loading
Personal Weather Stations






























Interactive Weather Map New forecast layout! Learn more

10-Day Weather Forecast

Advertisements
Track Severe Weather on mobile